Time;durP1;ratioP1;P1;durP2;ratioP2;P2;SDS_P1;SDS_P2;PMS_P1;PMS_P2;Temp;Humidity;BMP_temperature;BMP_pressure;BME280_temperature;BME280_humidity;BME280_pressure;Samples;Min_cycle;Max_cycle;Signal;HPM_P1;HPM_P2
2021/09/15 16:42:53;;;;;;;11.57;5.72;;;14.70;66.30;;;;;;5111796;27;20438;-88
2021/09/15 16:45:19;;;;;;;18.05;5.53;;;14.20;68.10;;;;;;5111062;28;20439;-91
2021/09/15 16:47:44;;;;;;;15.02;7.13;;;14.10;69.30;;;;;;5096874;28;20047;-88
2021/09/15 16:50:10;;;;;;;13.18;5.72;;;14.10;70.90;;;;;;5090703;28;20028;-88
2021/09/15 16:52:36;;;;;;;66.00;33.38;;;14.00;71.70;;;;;;5091181;28;20466;-93
2021/09/15 16:55:03;;;;;;;52.25;31.73;;;14.10;72.00;;;;;;5093968;28;20368;-96
2021/09/15 16:57:29;;;;;;;21.83;12.50;;;14.00;72.70;;;;;;5095088;28;20032;-95
2021/09/15 16:59:55;;;;;;;28.80;12.48;;;14.10;72.90;;;;;;5090719;28;20033;-90
2021/09/15 17:02:20;;;;;;;21.80;11.45;;;14.10;73.40;;;;;;5090392;28;20032;-91
2021/09/15 17:04:46;;;;;;;27.00;11.18;;;14.10;73.40;;;;;;5090399;28;20489;-90
2021/09/15 17:07:11;;;;;;;29.80;13.50;;;14.10;74.00;;;;;;5090385;28;20074;-91
2021/09/15 17:09:37;;;;;;;31.70;13.95;;;14.10;74.40;;;;;;5090299;28;20028;-91
2021/09/15 17:12:04;;;;;;;33.47;15.23;;;14.10;74.80;;;;;;5090133;28;20025;-90
2021/09/15 17:15:03;;;;;;;35.70;17.27;;;14.00;74.00;;;;;;5083908;28;20373;-91
2021/09/15 17:17:29;;;;;;;46.20;19.90;;;14.00;75.10;;;;;;5050339;28;20459;-91
2021/09/15 17:19:54;;;;;;;43.40;18.88;;;14.00;75.10;;;;;;5050214;28;20040;-91
2021/09/15 17:22:20;;;;;;;38.47;17.67;;;14.00;75.60;;;;;;5049995;28;20382;-91
2021/09/15 17:24:46;;;;;;;43.38;17.98;;;13.90;76.30;;;;;;5050464;28;20026;-91
2021/09/15 17:27:11;;;;;;;42.28;18.45;;;13.90;76.50;;;;;;5049891;28;20529;-90
2021/09/15 17:29:37;;;;;;;41.88;17.90;;;13.90;76.90;;;;;;5049408;28;20045;-90
2021/09/15 17:32:03;;;;;;;43.97;18.90;;;13.90;77.20;;;;;;5049813;28;20035;-91
2021/09/15 17:34:28;;;;;;;35.60;17.77;;;13.80;77.40;;;;;;5049665;28;20033;-90
2021/09/15 17:36:54;;;;;;;40.33;19.08;;;13.80;77.70;;;;;;5050045;28;20021;-90
2021/09/15 17:39:20;;;;;;;37.95;19.17;;;13.80;78.10;;;;;;5050082;28;20029;-90
2021/09/15 17:41:46;;;;;;;39.53;17.63;;;13.70;78.50;;;;;;5050058;28;20037;-90
2021/09/15 17:44:11;;;;;;;37.97;17.50;;;13.60;78.60;;;;;;5049755;28;20029;-90
2021/09/15 17:46:37;;;;;;;37.35;17.17;;;13.60;78.80;;;;;;5049761;28;20047;-90
2021/09/15 17:49:03;;;;;;;39.38;17.98;;;13.60;79.10;;;;;;5049172;28;20087;-90
2021/09/15 17:51:29;;;;;;;34.00;17.05;;;13.60;79.50;;;;;;5049918;28;20032;-90
2021/09/15 17:53:54;;;;;;;34.85;16.02;;;13.50;80.00;;;;;;5049736;28;20029;-89
2021/09/15 17:56:20;;;;;;;45.97;17.42;;;13.50;80.30;;;;;;5050872;28;20365;-89
2021/09/15 17:58:46;;;;;;;37.42;16.30;;;13.40;80.70;;;;;;5050066;28;20368;-90
2021/09/15 18:01:12;;;;;;;38.70;16.80;;;13.40;80.90;;;;;;5049283;28;20035;-90
2021/09/15 18:03:37;;;;;;;35.70;16.23;;;13.30;81.40;;;;;;5050549;28;20060;-90
2021/09/15 18:06:03;;;;;;;34.08;16.77;;;13.30;81.70;;;;;;5049628;28;20032;-90
2021/09/15 18:08:29;;;;;;;31.20;16.85;;;13.30;82.00;;;;;;5049740;28;20032;-90
2021/09/15 18:10:55;;;;;;;32.65;16.42;;;13.30;82.50;;;;;;5049241;28;20029;-90
2021/09/15 18:13:21;;;;;;;35.92;18.50;;;13.20;82.80;;;;;;5048828;28;20571;-90
2021/09/15 18:15:48;;;;;;;36.60;18.50;;;13.20;83.30;;;;;;5049340;28;20112;-89
2021/09/15 18:23:25;;;;;;;43.38;20.08;;;13.10;84.50;;;;;;5229406;22;20522;-83
2021/09/15 18:25:51;;;;;;;49.67;20.42;;;13.00;85.30;;;;;;5059394;28;20148;-83
2021/09/15 18:28:17;;;;;;;35.45;18.98;;;12.90;85.50;;;;;;5038385;28;20071;-86
2021/09/15 18:30:43;;;;;;;36.85;19.35;;;12.90;86.30;;;;;;5038584;28;20481;-87
2021/09/15 18:33:09;;;;;;;38.47;20.40;;;12.90;86.90;;;;;;5055769;28;20025;-83
2021/09/15 18:35:34;;;;;;;34.08;16.75;;;12.90;87.20;;;;;;5055856;28;20022;-82
2021/09/15 18:38:02;;;;;;;35.65;17.20;;;12.80;87.10;;;;;;5038023;28;20036;-82
2021/09/15 18:40:27;;;;;;;42.95;20.00;;;12.80;88.10;;;;;;5037697;28;20021;-82
2021/09/15 18:42:53;;;;;;;41.17;19.00;;;12.70;88.30;;;;;;5037989;28;20124;-83
2021/09/15 18:45:20;;;;;;;40.88;17.77;;;12.70;88.70;;;;;;5055722;28;20021;-83
2021/09/15 18:47:47;;;;;;;37.85;18.35;;;12.60;88.70;;;;;;5055658;28;20017;-83
2021/09/15 18:50:12;;;;;;;36.55;18.52;;;12.60;89.20;;;;;;5055475;28;20024;-82
2021/09/15 18:52:38;;;;;;;39.28;18.10;;;12.60;89.40;;;;;;5054992;28;20025;-83
2021/09/15 18:55:05;;;;;;;37.13;17.42;;;12.60;89.60;;;;;;5055381;28;20019;-83
2021/09/15 18:57:30;;;;;;;44.75;18.38;;;12.60;89.60;;;;;;5055503;28;20024;-83
2021/09/15 18:59:57;;;;;;;41.05;17.40;;;12.50;90.10;;;;;;5055254;28;20033;-83
2021/09/15 19:02:23;;;;;;;42.58;18.50;;;12.50;90.20;;;;;;5055508;28;20033;-83
2021/09/15 19:04:48;;;;;;;38.67;16.73;;;12.50;90.40;;;;;;5055689;28;20028;-83
2021/09/15 19:07:14;;;;;;;34.95;16.52;;;12.50;90.50;;;;;;5037648;28;20025;-82
2021/09/15 19:09:40;;;;;;;32.03;16.35;;;12.40;90.60;;;;;;5037414;28;20025;-83
2021/09/15 19:12:06;;;;;;;41.70;17.75;;;12.40;90.70;;;;;;5055425;28;20050;-84
2021/09/15 19:14:32;;;;;;;37.00;15.82;;;12.40;90.80;;;;;;5037115;28;20028;-82
2021/09/15 19:16:58;;;;;;;40.55;21.13;;;12.40;91.00;;;;;;5041303;28;20425;-81
2021/09/15 19:19:23;;;;;;;38.80;19.73;;;12.40;91.10;;;;;;5037226;28;20025;-81
2021/09/15 19:21:50;;;;;;;47.00;20.25;;;12.40;91.30;;;;;;5037291;28;20033;-82
2021/09/15 19:24:19;;;;;;;36.17;17.63;;;12.30;91.60;;;;;;5037630;28;20032;-93
2021/09/15 19:26:45;;;;;;;32.13;15.82;;;12.30;91.80;;;;;;5038289;28;20120;-92
2021/09/15 19:29:11;;;;;;;33.92;16.05;;;12.20;91.70;;;;;;5038401;28;20033;-92
2021/09/15 19:31:37;;;;;;;32.13;15.18;;;12.20;91.80;;;;;;5056188;28;20055;-93
2021/09/15 19:34:03;;;;;;;32.47;15.63;;;12.20;91.90;;;;;;5038279;28;20024;-93
2021/09/15 19:36:31;;;;;;;31.13;15.18;;;12.20;91.90;;;;;;5054857;28;20028;-93
2021/09/15 19:38:56;;;;;;;29.23;15.05;;;12.20;92.00;;;;;;5055712;28;20104;-93
2021/09/15 19:41:22;;;;;;;38.33;15.60;;;12.20;92.10;;;;;;5037999;28;20053;-94
2021/09/15 19:43:48;;;;;;;33.08;15.85;;;12.10;92.10;;;;;;5055680;28;20430;-90
2021/09/15 19:46:14;;;;;;;32.53;16.45;;;12.10;92.30;;;;;;5037426;28;20059;-90
2021/09/15 19:48:40;;;;;;;27.73;14.48;;;12.00;92.80;;;;;;5055724;28;20021;-90
2021/09/15 19:51:08;;;;;;;33.15;14.80;;;12.00;92.80;;;;;;5032242;28;20029;-90
2021/09/15 19:53:35;;;;;;;30.00;14.82;;;12.00;92.80;;;;;;5048477;28;20025;-90
2021/09/15 19:56:01;;;;;;;32.63;14.75;;;12.00;92.90;;;;;;5055170;28;20021;-90
2021/09/15 19:58:26;;;;;;;33.47;14.25;;;12.00;92.90;;;;;;5037661;28;20028;-89
2021/09/15 20:00:52;;;;;;;28.15;13.05;;;11.90;93.10;;;;;;5037327;28;20040;-89
2021/09/15 20:03:20;;;;;;;29.27;12.60;;;11.80;93.30;;;;;;5055331;28;20462;-89
2021/09/15 20:05:45;;;;;;;26.17;12.43;;;11.80;93.30;;;;;;5055190;28;20025;-89
2021/09/15 20:08:11;;;;;;;26.73;12.77;;;11.80;93.30;;;;;;5055337;28;20029;-89
2021/09/15 20:10:37;;;;;;;27.40;12.82;;;11.80;93.50;;;;;;5055148;28;20080;-89
2021/09/15 20:13:02;;;;;;;28.60;15.00;;;11.80;93.70;;;;;;5054826;28;20112;-89
2021/09/15 20:15:28;;;;;;;27.65;15.27;;;11.70;93.70;;;;;;5055035;28;20416;-89
2021/09/15 20:17:54;;;;;;;26.83;13.52;;;11.70;93.80;;;;;;5037228;28;20029;-88
2021/09/15 20:20:20;;;;;;;30.70;13.38;;;11.70;94.10;;;;;;5036825;28;20021;-89
2021/09/15 20:22:46;;;;;;;23.45;12.32;;;11.60;94.20;;;;;;5036456;28;20091;-92
2021/09/15 20:25:12;;;;;;;32.05;12.80;;;11.50;94.30;;;;;;5054497;28;20048;-89
2021/09/15 20:27:38;;;;;;;26.95;10.82;;;11.60;94.40;;;;;;5037163;28;20493;-89
2021/09/15 20:30:05;;;;;;;19.90;10.93;;;11.50;94.40;;;;;;5054336;28;20044;-89
2021/09/15 20:32:30;;;;;;;19.98;10.40;;;11.50;94.40;;;;;;5054423;28;20032;-88
2021/09/15 20:34:56;;;;;;;18.17;9.25;;;11.50;94.50;;;;;;5054723;28;20021;-89
2021/09/15 20:37:22;;;;;;;17.80;10.25;;;11.40;94.50;;;;;;5055259;28;20021;-88
2021/09/15 20:39:47;;;;;;;24.20;9.95;;;11.40;94.70;;;;;;5036891;28;20029;-93
2021/09/15 20:42:13;;;;;;;19.00;11.15;;;11.40;94.80;;;;;;5036775;28;20024;-93
2021/09/15 20:44:39;;;;;;;19.35;10.13;;;11.40;94.90;;;;;;5054639;28;20029;-93
2021/09/15 20:47:05;;;;;;;18.75;10.35;;;11.40;95.00;;;;;;5054603;28;20029;-93
2021/09/15 20:49:31;;;;;;;21.70;10.85;;;11.40;95.10;;;;;;5037041;28;20029;-94
2021/09/15 20:51:57;;;;;;;21.20;11.13;;;11.40;95.20;;;;;;5054263;28;20047;-93
2021/09/15 20:54:26;;;;;;;24.98;11.55;;;11.40;95.20;;;;;;5036704;28;20029;-92
2021/09/15 20:56:52;;;;;;;23.20;12.15;;;11.40;95.20;;;;;;5036819;28;20470;-93
2021/09/15 20:59:18;;;;;;;24.85;12.63;;;11.40;95.30;;;;;;5036700;28;20032;-93
2021/09/15 21:01:45;;;;;;;25.02;12.30;;;11.40;95.50;;;;;;5054084;28;20029;-93
2021/09/15 21:04:11;;;;;;;23.88;12.60;;;11.40;95.50;;;;;;5054222;28;20029;-93
2021/09/15 21:06:36;;;;;;;27.70;13.40;;;11.40;95.50;;;;;;5036426;28;20025;-93
2021/09/15 21:09:03;;;;;;;25.00;13.40;;;11.40;95.70;;;;;;5054264;28;20033;-93
2021/09/15 21:11:29;;;;;;;23.38;12.43;;;11.40;95.70;;;;;;5036730;28;20033;-93
2021/09/15 21:13:55;;;;;;;27.10;12.45;;;11.40;95.70;;;;;;5054441;28;20042;-92
2021/09/15 21:16:21;;;;;;;26.83;12.95;;;11.40;95.70;;;;;;5054090;28;20080;-93
2021/09/15 21:18:46;;;;;;;24.85;12.20;;;11.40;95.80;;;;;;5054160;28;20025;-92
2021/09/15 21:21:12;;;;;;;18.67;11.18;;;11.40;95.90;;;;;;5054227;28;20463;-92
2021/09/15 21:23:38;;;;;;;22.73;11.70;;;11.50;95.80;;;;;;5036465;28;20063;-93
2021/09/15 21:26:04;;;;;;;22.85;12.02;;;11.50;95.80;;;;;;5036226;28;20040;-92
2021/09/15 21:28:31;;;;;;;21.17;11.77;;;11.50;95.90;;;;;;5054122;28;20360;-92
2021/09/15 21:30:57;;;;;;;27.75;11.82;;;11.50;96.00;;;;;;5036501;28;20033;-93
2021/09/15 21:33:22;;;;;;;23.40;12.05;;;11.40;96.20;;;;;;5053902;28;20035;-92
2021/09/15 21:35:48;;;;;;;20.05;11.57;;;11.40;96.20;;;;;;5036597;28;20020;-92
2021/09/15 21:38:14;;;;;;;25.52;11.23;;;11.40;96.30;;;;;;5054064;28;20053;-92
2021/09/15 21:40:39;;;;;;;19.45;10.68;;;11.40;96.30;;;;;;5054050;28;20025;-92
2021/09/15 21:43:05;;;;;;;17.83;10.55;;;11.40;96.40;;;;;;5036460;28;20029;-92
2021/09/15 21:45:31;;;;;;;22.40;11.10;;;11.40;96.30;;;;;;5036195;28;20402;-91
2021/09/15 21:47:58;;;;;;;18.58;10.30;;;11.40;96.30;;;;;;5036497;28;20029;-91
2021/09/15 21:50:23;;;;;;;18.55;9.90;;;11.30;96.30;;;;;;5053931;28;20086;-92
2021/09/15 21:52:49;;;;;;;20.85;10.52;;;11.30;96.20;;;;;;5053892;28;20033;-91
2021/09/15 21:55:14;;;;;;;18.33;10.25;;;11.30;96.20;;;;;;5053980;28;20036;-92
2021/09/15 21:57:40;;;;;;;20.40;9.85;;;11.30;96.30;;;;;;5053883;28;20021;-92
2021/09/15 22:00:13;;;;;;;18.92;9.30;;;11.20;96.30;;;;;;5036950;28;20031;-92
2021/09/15 22:02:38;;;;;;;17.98;9.90;;;11.30;96.40;;;;;;5039932;28;20107;-91
2021/09/15 22:05:05;;;;;;;17.13;9.85;;;11.20;96.40;;;;;;5057469;28;20064;-91
2021/09/15 22:07:30;;;;;;;17.67;9.70;;;11.20;96.40;;;;;;5057472;28;20120;-91
2021/09/15 22:09:56;;;;;;;16.17;9.23;;;11.20;96.40;;;;;;5039888;28;20455;-91
2021/09/15 22:12:22;;;;;;;16.90;9.93;;;11.10;96.60;;;;;;5057437;28;20029;-91
2021/09/15 22:14:47;;;;;;;16.92;9.50;;;11.10;96.50;;;;;;5057412;28;20044;-91
2021/09/15 22:17:13;;;;;;;17.50;9.90;;;11.10;96.60;;;;;;5057369;28;20028;-91
2021/09/15 22:19:39;;;;;;;16.08;9.30;;;11.10;96.70;;;;;;5039858;28;20029;-91
2021/09/15 22:22:05;;;;;;;19.23;10.30;;;11.10;96.70;;;;;;5057433;28;20124;-91
2021/09/15 22:24:31;;;;;;;16.60;9.30;;;11.00;96.80;;;;;;5039428;28;20036;-92
2021/09/15 22:26:56;;;;;;;15.18;9.18;;;11.00;96.80;;;;;;5039328;28;20086;-92
2021/09/15 22:29:22;;;;;;;20.73;9.88;;;11.00;96.90;;;;;;5057096;28;20048;-91
2021/09/15 22:31:48;;;;;;;17.08;9.45;;;11.00;96.90;;;;;;5057447;28;20407;-91
2021/09/15 22:34:13;;;;;;;16.17;9.30;;;10.90;97.00;;;;;;5056944;28;20095;-91
2021/09/15 22:36:39;;;;;;;17.90;9.77;;;10.90;97.00;;;;;;5056815;28;20029;-91
2021/09/15 22:39:06;;;;;;;16.55;9.75;;;10.90;97.20;;;;;;5039435;28;20027;-91
2021/09/15 22:41:32;;;;;;;16.80;10.00;;;10.90;97.20;;;;;;5039236;28;20025;-91
2021/09/15 22:43:58;;;;;;;18.10;9.65;;;10.90;97.40;;;;;;5057073;28;20528;-91
2021/09/15 22:46:23;;;;;;;21.63;9.57;;;10.90;97.40;;;;;;5038756;28;20033;-91
2021/09/15 22:48:49;;;;;;;21.42;10.10;;;10.80;97.50;;;;;;5057186;28;20048;-91
2021/09/15 22:51:15;;;;;;;16.98;9.98;;;10.80;97.60;;;;;;5057127;28;20481;-91
2021/09/15 22:53:40;;;;;;;19.25;9.75;;;10.70;97.60;;;;;;5056880;28;20056;-91
2021/09/15 22:56:06;;;;;;;16.70;9.63;;;10.70;97.60;;;;;;5038795;28;20025;-91
2021/09/15 22:58:32;;;;;;;20.15;10.52;;;10.70;97.50;;;;;;5056514;28;20028;-91
2021/09/15 23:00:59;;;;;;;27.20;16.38;;;10.70;97.50;;;;;;5038961;28;20479;-91
2021/09/15 23:03:25;;;;;;;37.00;24.35;;;10.70;97.60;;;;;;5038844;28;20025;-92
2021/09/15 23:05:51;;;;;;;35.30;21.02;;;10.70;97.60;;;;;;5056576;28;20166;-91
2021/09/15 23:08:17;;;;;;;33.10;20.80;;;10.70;97.60;;;;;;5038933;28;20528;-91
2021/09/15 23:10:43;;;;;;;33.05;22.15;;;10.70;97.70;;;;;;5038498;28;20033;-91
2021/09/15 23:13:09;;;;;;;34.92;22.67;;;10.60;97.60;;;;;;5038296;28;20393;-92
2021/09/15 23:15:35;;;;;;;37.33;24.00;;;10.60;97.70;;;;;;5038722;28;20025;-92
2021/09/15 23:18:01;;;;;;;36.17;24.20;;;10.60;97.70;;;;;;5038585;28;20112;-91
2021/09/15 23:20:26;;;;;;;42.38;26.33;;;10.60;97.70;;;;;;5056047;28;20056;-91
2021/09/15 23:22:52;;;;;;;33.42;21.33;;;10.60;97.90;;;;;;5038514;28;20080;-92
2021/09/15 23:25:18;;;;;;;36.90;23.73;;;10.50;97.90;;;;;;5038613;28;20025;-91
2021/09/15 23:27:44;;;;;;;34.55;21.90;;;10.50;97.90;;;;;;5038571;28;20029;-92
2021/09/15 23:30:10;;;;;;;39.72;22.27;;;10.50;98.00;;;;;;5038297;28;20463;-91
2021/09/15 23:32:36;;;;;;;43.28;25.10;;;10.50;98.10;;;;;;5038132;28;20021;-92
2021/09/15 23:35:02;;;;;;;50.83;28.88;;;10.40;98.10;;;;;;5038174;28;20021;-92
2021/09/15 23:37:28;;;;;;;56.05;31.58;;;10.40;98.10;;;;;;5038096;28;20052;-91
2021/09/15 23:39:54;;;;;;;54.10;31.08;;;10.40;98.20;;;;;;5038123;28;20078;-91
2021/09/15 23:42:19;;;;;;;68.53;38.20;;;10.40;98.20;;;;;;5038151;28;20029;-91
2021/09/15 23:44:45;;;;;;;69.68;39.17;;;10.30;98.20;;;;;;5037977;28;20025;-91
2021/09/15 23:47:10;;;;;;;69.28;38.45;;;10.30;98.20;;;;;;5037653;28;20035;-91
2021/09/15 23:49:36;;;;;;;70.57;39.53;;;10.20;98.40;;;;;;5038122;28;20025;-91
2021/09/15 23:52:02;;;;;;;70.00;38.67;;;10.20;98.40;;;;;;5037892;28;20464;-92
2021/09/15 23:54:28;;;;;;;63.15;36.40;;;10.20;98.50;;;;;;5037807;28;20029;-92
2021/09/15 23:56:53;;;;;;;58.97;33.88;;;10.10;98.60;;;;;;5038331;28;20044;-92
2021/09/15 23:59:19;;;;;;;58.40;30.63;;;10.10;98.70;;;;;;5037976;28;20123;-91
